Terminal Aerodrome Forecast
Issued by NWS Charleston, WV

Current Version | Previous Version | Graphics & Text | Print | Product List | Glossary On
Versions: 1 2 3 4 5 6 7 8 9 10 11 12 13 14 15 16 17 18 19 20 21 22 23 24 25 26
000
FTUS41 KRLX 091740
TAFHTS
TAF
KHTS 091740Z 0918/1018 20008KT P6SM SKC
     FM091900 23009KT P6SM BKN090
     FM092300 26010KT P6SM OVC035
      TEMPO 0923/1001 26011G17KT 3SM -SHSN OVC025
     FM100100 26011G18KT P6SM OVC021
     FM101100 25009KT P6SM BKN027
     FM101200 25009KT P6SM BKN035
     FM101700 23011G18KT P6SM SCT080=

USA.gov is the U.S. government's official web portal to all federal, state and local government web resources and services.